Time;durP1;ratioP1;P1;durP2;ratioP2;P2;SDS_P1;SDS_P2;PMS_P1;PMS_P2;Temp;Humidity;BMP_temperature;BMP_pressure;BME280_temperature;BME280_humidity;BME280_pressure;Samples;Min_cycle;Max_cycle;Signal;HPM_P1;HPM_P2
2024/04/12 00:01:44;;;;;;;26.30;16.73;;;15.60;99.90;;;;;;5372747;26;19992;-74
2024/04/12 00:04:15;;;;;;;22.95;14.57;;;15.60;99.90;;;;;;5442715;26;19999;-74
2024/04/12 00:06:45;;;;;;;28.45;15.60;;;15.60;99.90;;;;;;5391646;26;20439;-73
2024/04/12 00:09:17;;;;;;;23.30;16.17;;;15.70;99.90;;;;;;5448639;26;19995;-73
2024/04/12 00:11:50;;;;;;;27.05;15.98;;;15.80;99.90;;;;;;5399243;26;19999;-73
2024/04/12 00:14:16;;;;;;;25.60;13.77;;;15.90;99.90;;;;;;5392055;26;20032;-74
2024/04/12 00:16:52;;;;;;;24.80;14.27;;;16.00;99.90;;;;;;5425926;26;20115;-73
2024/04/12 00:19:25;;;;;;;24.58;14.43;;;16.00;99.90;;;;;;5438661;26;20007;-76
2024/04/12 00:21:59;;;;;;;22.58;13.75;;;16.10;99.90;;;;;;5417142;26;20023;-73
2024/04/12 00:24:26;;;;;;;23.25;14.02;;;16.10;99.90;;;;;;5376958;26;20011;-74
2024/04/12 00:26:55;;;;;;;22.50;14.13;;;16.00;99.90;;;;;;5379191;26;20003;-74
2024/04/12 00:29:25;;;;;;;19.70;13.48;;;16.00;99.90;;;;;;5369949;26;19995;-74
2024/04/12 00:31:53;;;;;;;23.63;13.52;;;16.00;99.90;;;;;;5442388;26;20335;-74
2024/04/12 00:34:26;;;;;;;21.75;13.23;;;16.00;99.90;;;;;;5426458;26;20016;-74
2024/04/12 00:36:55;;;;;;;21.88;11.80;;;16.10;99.90;;;;;;5399657;26;19998;-74
2024/04/12 00:39:35;;;;;;;22.10;12.80;;;16.10;99.90;;;;;;5434955;26;20447;-73
2024/04/12 00:42:07;;;;;;;22.45;12.45;;;16.00;99.90;;;;;;5378181;26;20006;-75
2024/04/12 00:44:33;;;;;;;24.90;13.43;;;16.00;99.90;;;;;;5460911;26;20339;-73
2024/04/12 00:47:00;;;;;;;21.23;11.98;;;16.00;99.90;;;;;;5477703;26;20393;-74
2024/04/12 00:49:30;;;;;;;22.17;11.93;;;16.10;99.90;;;;;;5414360;26;20009;-74
2024/04/12 00:52:02;;;;;;;18.98;11.15;;;16.10;99.90;;;;;;5420398;26;20129;-75
2024/04/12 00:54:29;;;;;;;19.23;11.27;;;16.10;99.90;;;;;;5435739;26;20364;-76
2024/04/12 00:56:58;;;;;;;20.13;11.07;;;16.10;99.90;;;;;;5439752;26;20022;-75
2024/04/12 00:59:24;;;;;;;19.52;10.85;;;16.10;99.90;;;;;;5446805;26;20537;-74
2024/04/12 01:01:50;;;;;;;16.30;9.32;;;16.10;99.90;;;;;;5480071;26;19994;-74
2024/04/12 01:04:20;;;;;;;21.58;10.27;;;16.10;99.90;;;;;;5434523;26;20005;-75
2024/04/12 01:06:47;;;;;;;15.30;8.98;;;16.10;99.90;;;;;;5415248;26;20313;-75
2024/04/12 01:09:13;;;;;;;16.90;9.82;;;16.10;99.90;;;;;;5472852;26;20021;-74
2024/04/12 01:11:39;;;;;;;19.48;10.63;;;16.00;99.90;;;;;;5429827;26;20473;-74
2024/04/12 01:14:05;;;;;;;16.48;10.05;;;16.00;99.90;;;;;;5460163;26;19998;-76
2024/04/12 01:16:31;;;;;;;16.88;9.65;;;16.00;99.90;;;;;;5423280;26;20363;-74
2024/04/12 01:18:57;;;;;;;15.38;10.50;;;16.00;99.90;;;;;;5428163;26;19998;-75
2024/04/12 01:21:24;;;;;;;19.73;10.55;;;16.00;99.90;;;;;;5437754;26;20008;-74
2024/04/12 01:23:53;;;;;;;18.40;10.45;;;16.00;99.90;;;;;;5453539;26;20010;-73
2024/04/12 01:26:21;;;;;;;20.08;10.38;;;16.00;99.90;;;;;;5407651;26;20000;-75
2024/04/12 01:28:48;;;;;;;17.17;10.30;;;16.00;99.90;;;;;;5457829;26;20331;-74
2024/04/12 01:31:17;;;;;;;20.60;10.60;;;15.80;99.90;;;;;;5446596;26;20034;-73
2024/04/12 01:33:50;;;;;;;18.60;10.95;;;15.70;99.90;;;;;;5455441;26;20026;-74
2024/04/12 01:36:21;;;;;;;21.15;10.65;;;15.70;99.90;;;;;;5472399;26;20011;-74
2024/04/12 01:38:54;;;;;;;19.33;10.15;;;15.70;99.90;;;;;;5486298;26;20006;-74
2024/04/12 01:41:32;;;;;;;16.90;10.68;;;15.70;99.90;;;;;;5451068;26;20009;-74
2024/04/12 01:44:06;;;;;;;17.02;10.70;;;15.60;99.90;;;;;;5483134;26;20014;-74
2024/04/12 01:46:35;;;;;;;19.95;11.32;;;15.50;99.90;;;;;;5443911;26;20038;-73
2024/04/12 01:49:10;;;;;;;24.17;11.40;;;15.60;99.90;;;;;;5400596;26;20345;-73
2024/04/12 01:51:41;;;;;;;19.45;10.43;;;15.60;99.90;;;;;;5431249;26;19990;-73
2024/04/12 01:54:13;;;;;;;18.08;9.93;;;15.60;99.90;;;;;;5402996;26;20028;-74
2024/04/12 01:56:50;;;;;;;19.30;11.00;;;15.60;99.90;;;;;;5496070;26;20001;-75
2024/04/12 01:59:21;;;;;;;18.05;10.70;;;15.60;99.90;;;;;;5448442;26;20220;-74
2024/04/12 02:01:50;;;;;;;18.95;11.18;;;15.60;99.90;;;;;;5473700;26;20013;-74
2024/04/12 02:04:18;;;;;;;16.55;10.20;;;15.60;99.90;;;;;;5454850;26;20046;-74
2024/04/12 02:06:44;;;;;;;22.20;10.63;;;15.60;99.90;;;;;;5445975;26;20014;-74
2024/04/12 02:09:14;;;;;;;19.33;11.07;;;15.60;99.90;;;;;;5436090;26;20009;-74
2024/04/12 02:11:47;;;;;;;21.77;10.82;;;15.60;99.90;;;;;;5457907;26;20483;-74
2024/04/12 02:14:13;;;;;;;17.40;10.20;;;15.60;99.90;;;;;;5462566;26;19998;-75
2024/04/12 02:16:42;;;;;;;18.85;10.93;;;15.60;99.90;;;;;;5443819;26;20072;-73
2024/04/12 02:19:13;;;;;;;17.48;10.25;;;15.60;99.90;;;;;;5446714;26;20335;-74
2024/04/12 02:21:40;;;;;;;23.08;10.80;;;15.70;99.90;;;;;;5467940;26;20001;-74
2024/04/12 02:24:08;;;;;;;22.15;11.70;;;15.90;99.90;;;;;;5452049;26;20034;-74
2024/04/12 02:26:35;;;;;;;22.65;12.07;;;15.80;99.90;;;;;;5425683;26;20002;-75
2024/04/12 02:29:04;;;;;;;23.30;12.38;;;15.70;99.90;;;;;;5451663;26;20003;-73
2024/04/12 02:31:31;;;;;;;26.58;13.02;;;15.60;99.90;;;;;;5401698;26;19994;-73
2024/04/12 02:33:58;;;;;;;21.75;11.60;;;15.60;99.90;;;;;;5445729;26;20009;-74
2024/04/12 02:36:30;;;;;;;24.15;12.25;;;15.70;99.90;;;;;;5438191;26;19991;-73
2024/04/12 02:38:56;;;;;;;22.42;12.35;;;15.70;99.90;;;;;;5404041;26;19998;-75
2024/04/12 02:41:22;;;;;;;24.30;12.25;;;15.60;99.90;;;;;;5389409;26;20002;-73
2024/04/12 02:43:51;;;;;;;28.05;13.15;;;15.60;99.90;;;;;;5476646;26;20013;-74
2024/04/12 02:46:18;;;;;;;21.50;13.23;;;15.70;99.90;;;;;;5435663;26;20013;-73
2024/04/12 02:48:44;;;;;;;25.35;12.70;;;15.70;99.90;;;;;;5424794;26;20083;-74
2024/04/12 02:51:13;;;;;;;30.83;14.23;;;15.70;99.90;;;;;;5436093;26;20007;-73
2024/04/12 02:53:41;;;;;;;26.70;14.00;;;15.70;99.90;;;;;;5370751;26;20003;-74
2024/04/12 02:56:09;;;;;;;26.80;13.98;;;15.70;99.90;;;;;;5421098;26;20018;-74
2024/04/12 02:58:42;;;;;;;27.80;14.55;;;15.80;99.90;;;;;;5421448;26;20064;-74
2024/04/12 03:01:18;;;;;;;27.42;14.35;;;15.70;99.90;;;;;;5465097;26;19998;-73
2024/04/12 03:03:45;;;;;;;29.00;15.27;;;15.60;99.90;;;;;;5455116;26;20042;-74
2024/04/12 03:06:17;;;;;;;26.02;14.20;;;15.50;99.90;;;;;;5422081;26;19998;-75
2024/04/12 03:08:49;;;;;;;29.92;15.73;;;15.50;99.90;;;;;;5444509;26;20006;-74
2024/04/12 03:11:25;;;;;;;25.88;14.63;;;15.50;99.90;;;;;;5422863;26;20129;-77
2024/04/12 03:13:52;;;;;;;27.70;15.57;;;15.50;99.90;;;;;;5450957;26;20014;-76
2024/04/12 03:16:19;;;;;;;30.42;16.15;;;15.50;99.90;;;;;;5458146;26;20010;-74
2024/04/12 03:18:46;;;;;;;27.48;14.52;;;15.40;99.90;;;;;;5433326;26;20394;-73
2024/04/12 03:21:16;;;;;;;26.08;15.18;;;15.50;99.90;;;;;;5461570;26;20026;-74
2024/04/12 03:23:45;;;;;;;27.48;14.73;;;15.40;99.90;;;;;;5462499;26;20441;-74
2024/04/12 03:26:12;;;;;;;29.50;13.43;;;15.50;99.90;;;;;;5446197;26;19998;-74
2024/04/12 03:28:38;;;;;;;29.58;13.85;;;15.40;99.90;;;;;;5488614;26;20407;-75
2024/04/12 03:31:07;;;;;;;26.98;14.13;;;15.30;99.90;;;;;;5422111;26;19995;-75
2024/04/12 03:33:42;;;;;;;30.55;13.80;;;15.30;99.90;;;;;;5452629;26;19998;-75
2024/04/12 03:39:24;;;;;;;30.27;13.55;;;15.50;99.90;;;;;;5464979;26;20058;-75
2024/04/12 03:41:43;;;;;;;24.02;12.55;;;15.60;99.90;;;;;;5467501;26;19998;-75
2024/04/12 03:44:13;;;;;;;23.75;12.05;;;15.50;99.90;;;;;;5437712;26;20344;-73
2024/04/12 03:46:40;;;;;;;19.20;10.70;;;15.40;99.90;;;;;;5417124;26;20002;-74
2024/04/12 03:49:10;;;;;;;26.38;12.10;;;15.40;99.90;;;;;;5474685;26;20008;-74
2024/04/12 03:51:44;;;;;;;24.08;12.52;;;15.30;99.90;;;;;;5411352;26;20010;-74
2024/04/12 03:54:19;;;;;;;24.08;11.35;;;15.30;99.90;;;;;;5467187;26;20007;-73
2024/04/12 03:56:51;;;;;;;22.77;11.40;;;15.30;99.90;;;;;;5444683;26;20031;-74
2024/04/12 03:59:23;;;;;;;23.83;11.60;;;15.40;99.90;;;;;;5445370;26;20003;-74
2024/04/12 04:01:49;;;;;;;20.38;10.45;;;15.40;99.90;;;;;;5432062;26;19999;-75
2024/04/12 04:04:19;;;;;;;21.08;11.65;;;15.40;99.90;;;;;;5476307;26;20071;-75
2024/04/12 04:06:54;;;;;;;28.75;12.05;;;15.30;99.90;;;;;;5441381;26;20014;-74
2024/04/12 04:09:26;;;;;;;19.83;10.77;;;15.30;99.90;;;;;;5421868;26;19999;-73
2024/04/12 04:11:53;;;;;;;20.13;11.07;;;15.30;99.90;;;;;;5440014;26;20009;-74
2024/04/12 04:14:20;;;;;;;21.83;10.45;;;15.30;99.90;;;;;;5432868;26;20394;-74
2024/04/12 04:17:12;;;;;;;23.70;11.68;;;15.30;99.90;;;;;;5431363;26;20010;-74
2024/04/12 04:19:41;;;;;;;24.23;10.68;;;15.30;99.90;;;;;;5414323;26;20447;-74
2024/04/12 04:22:21;;;;;;;17.58;11.18;;;15.30;99.90;;;;;;5447699;26;19998;-74
2024/04/12 04:24:54;;;;;;;22.65;11.50;;;15.30;99.90;;;;;;5430431;26;19998;-73
2024/04/12 04:27:24;;;;;;;28.75;11.65;;;15.50;99.90;;;;;;5487933;26;20014;-73
2024/04/12 04:29:51;;;;;;;24.75;11.23;;;15.60;99.90;;;;;;5485489;26;20033;-74
2024/04/12 04:32:20;;;;;;;30.92;11.43;;;15.60;99.90;;;;;;5450903;26;20043;-75
2024/04/12 04:35:04;;;;;;;23.33;10.02;;;15.70;99.90;;;;;;5436777;26;20039;-74
2024/04/12 04:37:34;;;;;;;24.58;10.73;;;15.70;99.90;;;;;;5430984;26;20002;-74
2024/04/12 04:40:00;;;;;;;24.65;10.80;;;15.70;99.90;;;;;;5422981;26;20003;-75
2024/04/12 04:42:26;;;;;;;23.77;11.48;;;15.70;99.90;;;;;;5468496;26;20070;-74
2024/04/12 04:44:52;;;;;;;24.85;10.93;;;15.80;99.90;;;;;;5425063;26;20003;-75
2024/04/12 04:47:18;;;;;;;20.10;9.75;;;15.80;99.90;;;;;;5419209;26;20345;-74
2024/04/12 04:49:43;;;;;;;23.15;10.68;;;15.70;99.90;;;;;;5424663;26;20009;-74
2024/04/12 04:52:09;;;;;;;24.52;10.93;;;15.60;99.90;;;;;;5424433;26;20013;-75
2024/04/12 04:54:39;;;;;;;18.55;10.48;;;15.70;99.90;;;;;;5455698;26;20003;-76
2024/04/12 04:57:06;;;;;;;24.52;11.80;;;15.60;99.90;;;;;;5466694;26;20017;-76
2024/04/12 04:59:32;;;;;;;24.35;10.18;;;15.70;99.90;;;;;;5476088;26;20331;-75
2024/04/12 05:02:00;;;;;;;22.25;10.77;;;15.70;99.90;;;;;;5439447;26;20047;-75
2024/04/12 05:04:31;;;;;;;19.48;10.35;;;15.60;99.90;;;;;;5450131;26;20010;-77
2024/04/12 05:06:58;;;;;;;24.80;10.63;;;15.60;99.90;;;;;;5421499;26;20007;-77
2024/04/12 05:09:27;;;;;;;18.88;10.77;;;15.60;99.90;;;;;;5453775;26;20005;-75
2024/04/12 05:11:54;;;;;;;21.90;10.43;;;15.60;99.90;;;;;;5408292;26;20374;-75
2024/04/12 05:17:06;;;;;;;25.23;10.95;;;15.60;99.90;;;;;;5450560;26;20504;-74
2024/04/12 05:19:33;;;;;;;19.13;10.10;;;15.60;99.90;;;;;;5415448;26;20002;-75
2024/04/12 05:22:06;;;;;;;24.63;10.88;;;15.70;99.90;;;;;;5490733;26;20167;-75
2024/04/12 05:24:33;;;;;;;32.90;11.05;;;15.80;99.90;;;;;;5422489;26;20012;-75
2024/04/12 05:27:04;;;;;;;21.45;10.77;;;15.80;99.90;;;;;;5456954;26;19999;-75
2024/04/12 05:29:30;;;;;;;21.77;9.90;;;15.90;99.90;;;;;;5453828;26;20014;-74
2024/04/12 05:31:59;;;;;;;23.13;10.57;;;15.90;99.90;;;;;;5450378;26;20003;-76
2024/04/12 05:34:28;;;;;;;18.95;9.80;;;15.90;99.90;;;;;;5427468;26;19999;-72
2024/04/12 05:37:00;;;;;;;19.20;9.60;;;16.00;99.90;;;;;;5466209;26;20010;-74
2024/04/12 05:39:25;;;;;;;18.58;10.02;;;16.00;99.90;;;;;;5449117;26;19999;-75
2024/04/12 05:41:53;;;;;;;20.90;9.18;;;16.00;99.90;;;;;;5408141;26;20420;-75
2024/04/12 05:44:22;;;;;;;20.05;9.95;;;16.00;99.90;;;;;;5445192;26;20021;-74
2024/04/12 05:46:48;;;;;;;20.88;9.30;;;16.00;99.90;;;;;;5455612;26;20062;-75
2024/04/12 05:49:15;;;;;;;16.75;8.20;;;16.00;99.90;;;;;;5434997;26;20003;-74
2024/04/12 05:51:41;;;;;;;24.38;8.80;;;16.00;99.90;;;;;;5437861;26;20010;-75
2024/04/12 05:54:10;;;;;;;17.52;9.55;;;16.00;99.90;;;;;;5458900;26;20009;-75
2024/04/12 05:56:39;;;;;;;22.30;9.40;;;16.00;99.90;;;;;;5436986;26;20007;-74
2024/04/12 05:59:13;;;;;;;19.25;8.35;;;16.00;99.90;;;;;;5455372;26;20072;-75
2024/04/12 06:01:43;;;;;;;15.88;8.07;;;16.10;99.90;;;;;;5478014;26;20002;-74
2024/04/12 06:04:10;;;;;;;17.27;8.38;;;16.10;99.90;;;;;;5398091;26;20359;-73
2024/04/12 06:06:40;;;;;;;21.17;8.45;;;16.20;99.90;;;;;;5397504;26;20066;-74
2024/04/12 06:09:06;;;;;;;19.02;8.45;;;16.20;99.90;;;;;;5473157;26;20079;-74
2024/04/12 06:11:34;;;;;;;16.20;7.75;;;16.20;99.90;;;;;;5415464;26;20006;-74
2024/04/12 06:14:02;;;;;;;16.85;8.05;;;16.20;99.90;;;;;;5407967;26;20013;-75
2024/04/12 06:16:27;;;;;;;16.58;7.78;;;16.30;99.90;;;;;;5421720;26;20002;-74
2024/04/12 06:18:58;;;;;;;19.40;8.52;;;16.30;99.90;;;;;;5421103;26;20021;-73
2024/04/12 06:21:23;;;;;;;22.95;8.80;;;16.30;99.90;;;;;;5440600;26;20005;-73
2024/04/12 06:23:54;;;;;;;16.20;8.18;;;16.30;99.90;;;;;;5456236;26;20005;-73
2024/04/12 06:26:22;;;;;;;14.90;7.03;;;16.30;99.90;;;;;;5431992;26;19999;-74
2024/04/12 06:28:48;;;;;;;20.38;8.23;;;16.30;99.90;;;;;;5439382;26;19995;-74
2024/04/12 06:31:19;;;;;;;21.00;8.00;;;16.50;99.90;;;;;;5400795;26;19995;-73
2024/04/12 06:33:46;;;;;;;18.00;7.95;;;16.40;99.90;;;;;;5458552;26;20005;-73
2024/04/12 06:36:13;;;;;;;18.63;7.40;;;16.40;99.90;;;;;;5367265;26;20404;-73
2024/04/12 06:38:39;;;;;;;19.38;7.75;;;16.40;99.90;;;;;;5412988;26;20003;-73
2024/04/12 06:41:10;;;;;;;13.73;7.28;;;16.60;99.90;;;;;;5431961;26;19994;-74
2024/04/12 06:43:37;;;;;;;16.75;8.15;;;16.60;99.90;;;;;;5405407;26;20293;-73
2024/04/12 06:46:11;;;;;;;19.50;7.45;;;16.60;99.90;;;;;;5465481;26;20018;-73
2024/04/12 06:48:40;;;;;;;23.85;7.75;;;16.70;99.90;;;;;;5448714;26;20009;-73
2024/04/12 06:51:11;;;;;;;14.15;6.82;;;16.80;99.90;;;;;;5448654;26;20453;-72
2024/04/12 06:53:49;;;;;;;26.23;8.05;;;16.90;99.90;;;;;;5409436;26;20010;-72
2024/04/12 06:56:17;;;;;;;21.40;7.43;;;16.90;99.90;;;;;;5459850;26;20350;-74
2024/04/12 06:58:48;;;;;;;16.10;6.82;;;17.00;99.90;;;;;;5487780;26;20014;-73
2024/04/12 07:01:21;;;;;;;16.08;7.03;;;17.00;99.90;;;;;;5435989;26;20056;-75
2024/04/12 07:03:47;;;;;;;15.95;7.07;;;17.00;99.90;;;;;;5453123;26;20727;-73
2024/04/12 07:06:16;;;;;;;17.08;7.63;;;17.10;99.90;;;;;;5467932;26;20009;-73
2024/04/12 07:08:49;;;;;;;21.00;7.13;;;17.00;99.90;;;;;;5471306;26;20325;-73
2024/04/12 07:11:19;;;;;;;21.25;6.97;;;17.10;99.90;;;;;;5489143;26;20828;-73
2024/04/12 07:13:54;;;;;;;14.40;6.43;;;17.20;99.90;;;;;;5454172;26;19994;-72
2024/04/12 07:16:21;;;;;;;17.15;6.53;;;17.30;99.90;;;;;;5414128;26;20428;-73
2024/04/12 07:18:47;;;;;;;15.38;7.03;;;17.30;99.90;;;;;;5411229;26;20072;-73
2024/04/12 07:21:16;;;;;;;21.80;7.03;;;17.20;99.90;;;;;;5431087;26;20041;-73
2024/04/12 07:23:49;;;;;;;18.23;6.93;;;17.20;99.90;;;;;;5423582;26;20091;-72
2024/04/12 07:26:26;;;;;;;18.08;7.05;;;17.20;99.90;;;;;;5455371;26;20082;-73
2024/04/12 07:28:58;;;;;;;16.52;6.55;;;17.10;99.90;;;;;;5452482;26;20067;-73
2024/04/12 07:31:24;;;;;;;17.67;6.38;;;17.20;99.90;;;;;;5421828;26;20003;-75
2024/04/12 07:33:51;;;;;;;15.07;6.50;;;17.20;99.90;;;;;;5458460;26;19999;-74
2024/04/12 07:36:17;;;;;;;16.73;6.63;;;17.20;99.90;;;;;;5473685;26;19998;-74
2024/04/12 07:38:43;;;;;;;14.50;6.45;;;17.30;99.90;;;;;;5437085;26;20027;-75
2024/04/12 07:41:10;;;;;;;19.15;6.47;;;17.30;99.90;;;;;;5418811;26;20019;-76
2024/04/12 07:43:42;;;;;;;23.92;6.90;;;17.40;99.90;;;;;;5439815;26;20014;-75
2024/04/12 07:46:14;;;;;;;22.63;7.47;;;17.40;99.90;;;;;;5416110;26;20009;-75
2024/04/12 07:48:41;;;;;;;25.27;7.20;;;17.30;99.90;;;;;;5462128;26;20009;-74
2024/04/12 07:51:07;;;;;;;20.60;6.68;;;17.40;99.90;;;;;;5415255;26;20027;-75
2024/04/12 07:53:35;;;;;;;21.52;6.30;;;17.50;99.90;;;;;;5390392;26;20019;-74
2024/04/12 07:56:00;;;;;;;16.70;6.38;;;17.60;99.90;;;;;;5448477;26;19998;-74
2024/04/12 07:58:27;;;;;;;9.15;5.35;;;17.50;99.90;;;;;;5414437;26;20006;-74
2024/04/12 08:03:42;;;;;;;15.70;5.97;;;17.60;99.90;;;;;;5477449;26;20069;-73
2024/04/12 08:06:20;;;;;;;18.17;6.05;;;17.50;99.90;;;;;;5486274;26;19994;-76
2024/04/12 08:08:47;;;;;;;22.98;6.50;;;17.60;99.90;;;;;;5497082;26;19994;-73
2024/04/12 08:11:34;;;;;;;14.30;5.65;;;17.80;99.90;;;;;;5403133;26;20027;-73
2024/04/12 08:14:07;;;;;;;16.77;6.10;;;17.90;99.90;;;;;;5466027;26;20026;-73
2024/04/12 08:16:37;;;;;;;19.42;5.10;;;18.10;99.90;;;;;;5405990;26;19998;-74
2024/04/12 08:19:15;;;;;;;14.15;4.93;;;18.30;99.90;;;;;;5469437;26;20363;-73
2024/04/12 08:21:44;;;;;;;14.48;4.35;;;18.40;99.90;;;;;;5423465;26;20074;-73
2024/04/12 08:24:14;;;;;;;19.20;4.95;;;18.60;99.90;;;;;;5433056;26;20014;-73
2024/04/12 08:26:48;;;;;;;12.43;4.63;;;18.60;99.90;;;;;;5426583;26;20002;-73
2024/04/12 08:29:23;;;;;;;21.13;4.70;;;18.60;99.90;;;;;;5455776;26;20006;-73
2024/04/12 08:32:11;;;;;;;14.75;4.13;;;18.60;99.90;;;;;;5457696;26;20002;-73
2024/04/12 08:34:44;;;;;;;8.73;3.78;;;18.50;99.90;;;;;;5423796;26;20039;-74
2024/04/12 08:37:14;;;;;;;9.52;3.72;;;18.60;99.90;;;;;;5450770;26;20010;-73
2024/04/12 08:39:44;;;;;;;11.52;3.65;;;18.80;99.90;;;;;;5415890;26;19999;-72
2024/04/12 08:42:16;;;;;;;15.32;4.00;;;19.00;99.90;;;;;;5397717;26;20009;-72
2024/04/12 08:44:47;;;;;;;13.57;3.72;;;19.20;99.90;;;;;;5424706;26;20338;-72
2024/04/12 08:47:29;;;;;;;11.35;3.28;;;19.30;99.90;;;;;;5461650;26;20029;-72
2024/04/12 08:50:03;;;;;;;13.82;3.20;;;19.50;99.90;;;;;;5419541;26;20021;-73
2024/04/12 08:52:42;;;;;;;12.75;3.40;;;19.70;99.90;;;;;;5427160;26;20006;-73
2024/04/12 08:55:13;;;;;;;11.40;3.22;;;19.90;99.90;;;;;;5455728;26;20035;-73
2024/04/12 08:57:42;;;;;;;8.35;3.17;;;20.10;99.90;;;;;;5422961;26;20006;-73
2024/04/12 09:00:21;;;;;;;11.10;3.00;;;20.30;99.90;;;;;;5445815;26;20003;-73
2024/04/12 09:02:58;;;;;;;9.27;3.38;;;20.50;99.90;;;;;;5424384;26;20013;-73
2024/04/12 09:05:26;;;;;;;14.00;3.30;;;20.70;99.90;;;;;;5457700;26;20489;-73
2024/04/12 09:07:56;;;;;;;11.68;3.20;;;20.90;99.90;;;;;;5453111;26;20449;-73
2024/04/12 09:10:22;;;;;;;10.48;3.15;;;21.10;99.90;;;;;;5486274;26;20051;-74
2024/04/12 09:12:48;;;;;;;7.70;2.85;;;21.20;99.90;;;;;;5397169;26;20448;-72
2024/04/12 09:15:23;;;;;;;10.70;3.10;;;21.20;99.90;;;;;;5423575;26;20002;-73
2024/04/12 09:18:00;;;;;;;9.88;3.70;;;21.10;99.90;;;;;;5398590;26;20101;-73
2024/04/12 09:20:31;;;;;;;8.95;3.30;;;21.30;99.90;;;;;;5453569;26;20014;-74
2024/04/12 09:23:14;;;;;;;12.45;3.10;;;21.50;99.90;;;;;;5410204;26;20006;-74
2024/04/12 09:25:55;;;;;;;19.08;3.53;;;21.50;99.90;;;;;;5414279;26;20478;-75
2024/04/12 09:28:22;;;;;;;15.32;3.78;;;21.30;99.90;;;;;;5468000;26;20017;-74
2024/04/12 09:33:34;;;;;;;9.88;3.70;;;21.70;99.90;;;;;;5460542;26;20426;-73
2024/04/12 09:36:06;;;;;;;10.43;3.60;;;22.10;99.90;;;;;;5457040;26;19998;-73
2024/04/12 09:38:33;;;;;;;11.10;3.63;;;22.50;99.90;;;;;;5455223;26;20010;-75
2024/04/12 09:41:13;;;;;;;11.55;3.85;;;22.90;99.90;;;;;;5428128;26;20503;-74
2024/04/12 09:43:47;;;;;;;13.13;4.38;;;23.20;99.90;;;;;;5466912;26;20006;-73
2024/04/12 09:46:36;;;;;;;17.20;4.80;;;23.90;99.90;;;;;;5453179;26;20006;-75
2024/04/12 10:37:23;;;;;;;10.40;4.30;;;23.70;99.90;;;;;;5452043;26;20012;-73
2024/04/12 10:39:15;;;;;;;9.48;3.55;;;25.20;99.90;;;;;;5263190;27;20017;-73
2024/04/12 10:41:45;;;;;;;14.32;4.13;;;26.10;99.90;;;;;;5378333;26;20013;-73
2024/04/12 10:44:13;;;;;;;8.48;3.53;;;26.40;99.90;;;;;;5445298;26;20319;-74
2024/04/12 10:46:39;;;;;;;9.73;3.55;;;26.10;99.90;;;;;;5445552;26;20067;-73
2024/04/12 10:49:05;;;;;;;9.40;3.28;;;26.30;99.90;;;;;;5443048;26;20010;-76
2024/04/12 10:51:33;;;;;;;9.88;3.78;;;27.00;99.90;;;;;;5476361;26;19999;-73
2024/04/12 10:53:59;;;;;;;13.98;4.40;;;27.10;99.90;;;;;;5440896;26;20031;-73
2024/04/12 10:56:26;;;;;;;7.45;3.25;;;27.10;99.90;;;;;;5457760;26;20013;-73
2024/04/12 10:58:52;;;;;;;12.50;3.85;;;26.40;99.90;;;;;;5438310;26;20011;-74
2024/04/12 11:01:23;;;;;;;10.75;3.85;;;26.70;99.90;;;;;;5425383;26;20002;-72
2024/04/12 11:03:58;;;;;;;13.48;4.43;;;27.10;99.90;;;;;;5450805;26;19999;-73
2024/04/12 11:06:34;;;;;;;28.05;4.88;;;27.60;99.90;;;;;;5431275;26;20088;-74
2024/04/12 11:09:06;;;;;;;11.18;3.63;;;26.60;99.90;;;;;;5391715;26;20021;-74
2024/04/12 11:11:33;;;;;;;;;;;26.60;99.90;;;;;;5438602;26;19998;-73
2024/04/12 11:14:00;;;;;;;11.13;3.97;;;26.60;99.90;;;;;;5491783;26;19930;-74
2024/04/12 11:33:02;;;;;;;13.38;3.75;;;25.90;99.90;;;;;;5463651;26;20009;-75
2024/04/12 11:35:30;;;;;;;10.20;4.20;;;25.80;99.90;;;;;;5453861;26;20023;-76
2024/04/12 11:37:56;;;;;;;11.57;3.40;;;25.90;99.90;;;;;;5461173;26;20442;-76
2024/04/12 11:40:24;;;;;;;13.48;3.42;;;25.50;99.90;;;;;;5394726;26;20016;-74
2024/04/12 11:42:56;;;;;;;12.43;3.45;;;25.50;99.90;;;;;;5408900;26;20055;-74
2024/04/12 11:45:25;;;;;;;12.98;3.45;;;25.00;99.90;;;;;;5449309;26;20006;-74
2024/04/12 11:47:51;;;;;;;8.50;3.03;;;26.20;99.90;;;;;;5427786;26;20002;-75
2024/04/12 11:50:17;;;;;;;10.90;3.58;;;26.30;99.90;;;;;;5460239;26;19999;-76
2024/04/12 11:52:43;;;;;;;10.27;3.00;;;25.70;99.90;;;;;;5403871;26;20017;-75
2024/04/12 11:55:12;;;;;;;9.32;3.05;;;26.50;99.90;;;;;;5446340;26;20414;-75
2024/04/12 11:57:41;;;;;;;9.70;3.22;;;26.30;99.90;;;;;;5438120;26;19999;-75
2024/04/12 12:00:11;;;;;;;10.70;3.10;;;26.20;99.90;;;;;;5448206;26;20019;-75
2024/04/12 12:02:37;;;;;;;9.32;3.17;;;26.90;99.90;;;;;;5413113;26;20003;-74
2024/04/12 12:05:06;;;;;;;12.05;3.13;;;27.80;99.50;;;;;;5474965;26;20342;-74
2024/04/12 12:07:32;;;;;;;17.15;3.47;;;26.90;99.90;;;;;;5410680;26;20010;-75
2024/04/12 12:09:57;;;;;;;10.23;3.28;;;27.30;99.60;;;;;;5429712;26;20009;-74
2024/04/12 12:12:26;;;;;;;8.90;3.20;;;28.10;98.90;;;;;;5427587;26;19998;-75
2024/04/12 12:14:51;;;;;;;9.63;3.15;;;28.70;97.60;;;;;;5458873;26;20067;-75
2024/04/12 12:17:18;;;;;;;11.90;3.40;;;29.30;96.70;;;;;;5429011;26;20010;-75
2024/04/12 12:19:46;;;;;;;10.07;3.03;;;29.00;96.20;;;;;;5430818;26;19999;-75
2024/04/12 12:22:12;;;;;;;11.07;3.70;;;29.70;95.80;;;;;;5416944;26;20415;-76
2024/04/12 12:24:38;;;;;;;12.82;3.28;;;30.30;94.60;;;;;;5428693;26;20013;-76
2024/04/12 12:27:08;;;;;;;9.40;3.03;;;29.50;94.70;;;;;;5485369;26;20018;-75
2024/04/12 12:29:42;;;;;;;11.48;2.97;;;27.70;95.90;;;;;;5396315;26;20010;-76
2024/04/12 12:32:08;;;;;;;11.05;3.72;;;26.60;96.90;;;;;;5393043;26;20013;-75
2024/04/12 12:34:34;;;;;;;11.13;3.00;;;26.50;96.90;;;;;;5422632;26;20003;-77
2024/04/12 12:37:04;;;;;;;7.63;3.25;;;26.40;97.40;;;;;;5422947;26;20014;-76
2024/04/12 12:39:31;;;;;;;9.75;3.10;;;26.50;97.60;;;;;;5434591;26;20009;-75
2024/04/12 12:42:05;;;;;;;7.35;3.33;;;26.10;98.00;;;;;;5444953;26;20010;-76
2024/04/12 12:44:31;;;;;;;8.95;3.50;;;26.30;97.50;;;;;;5412103;26;19998;-77
2024/04/12 12:47:02;;;;;;;19.30;3.55;;;26.00;97.70;;;;;;5442099;26;20009;-77
2024/04/12 12:49:33;;;;;;;12.25;4.15;;;26.40;97.50;;;;;;5428023;26;20050;-77
2024/04/12 12:51:59;;;;;;;11.80;3.70;;;26.90;97.30;;;;;;5440189;26;20012;-75
2024/04/12 12:54:26;;;;;;;10.70;3.58;;;26.90;97.10;;;;;;5450197;26;19999;-75
2024/04/12 12:56:53;;;;;;;14.70;3.35;;;26.50;97.60;;;;;;5433085;26;20519;-75
2024/04/12 12:59:19;;;;;;;15.15;3.53;;;25.70;97.80;;;;;;5413352;26;20354;-76
2024/04/12 13:01:46;;;;;;;12.77;3.75;;;25.30;98.70;;;;;;5412131;26;20002;-78
2024/04/12 13:04:12;;;;;;;9.27;3.40;;;25.60;98.40;;;;;;5448729;26;20003;-76
2024/04/12 13:06:40;;;;;;;20.25;3.88;;;25.00;98.10;;;;;;5474194;26;20450;-75
2024/04/12 13:09:06;;;;;;;15.23;3.78;;;25.20;98.40;;;;;;5418821;26;19998;-75
2024/04/12 13:11:32;;;;;;;13.10;3.75;;;25.10;98.90;;;;;;5422827;26;20071;-75
2024/04/12 13:14:09;;;;;;;8.98;3.95;;;25.20;98.60;;;;;;5455751;26;20045;-74
2024/04/12 13:16:41;;;;;;;8.88;3.35;;;25.30;99.00;;;;;;5456666;26;20034;-75
2024/04/12 13:19:08;;;;;;;16.75;4.25;;;26.50;97.90;;;;;;5449071;26;20002;-76
2024/04/12 13:21:33;;;;;;;12.70;3.13;;;27.20;97.30;;;;;;5451724;26;20003;-75
2024/04/12 13:23:59;;;;;;;17.40;4.50;;;27.20;96.70;;;;;;5456681;26;20003;-76
2024/04/12 13:26:31;;;;;;;9.38;3.17;;;26.70;96.80;;;;;;5453138;26;19999;-75
2024/04/12 13:28:57;;;;;;;11.80;3.53;;;27.10;97.40;;;;;;5459982;26;20010;-75
2024/04/12 13:31:24;;;;;;;14.80;3.50;;;28.00;96.10;;;;;;5427622;26;20015;-75
2024/04/12 13:33:53;;;;;;;11.73;3.30;;;27.00;96.30;;;;;;5490214;26;20001;-74
2024/04/12 13:36:20;;;;;;;12.23;3.47;;;26.80;96.90;;;;;;5458047;26;20347;-74
2024/04/12 13:38:50;;;;;;;10.82;2.83;;;28.10;95.70;;;;;;5474987;26;20602;-75
2024/04/12 13:41:18;;;;;;;7.25;2.80;;;27.60;95.70;;;;;;5423109;26;19995;-74
2024/04/12 13:43:49;;;;;;;13.18;3.92;;;27.10;96.10;;;;;;5461573;26;20082;-74
2024/04/12 13:51:50;;;;;;;14.35;3.92;;;27.70;95.50;;;;;;5426370;26;20013;-74
2024/04/12 13:54:21;;;;;;;12.33;3.03;;;27.00;95.80;;;;;;5452140;26;20050;-74
2024/04/12 13:57:02;;;;;;;12.40;3.60;;;27.50;95.90;;;;;;5451433;26;20026;-74
2024/04/12 13:59:30;;;;;;;9.32;3.60;;;28.00;95.60;;;;;;5394766;26;20467;-74
2024/04/12 14:01:56;;;;;;;13.20;3.85;;;28.00;95.40;;;;;;5462556;26;20338;-75
2024/04/12 14:04:27;;;;;;;11.23;3.85;;;27.70;95.30;;;;;;5487412;26;20018;-74
2024/04/12 14:06:53;;;;;;;9.52;3.35;;;27.50;95.80;;;;;;5487257;26;20341;-77